sensor_id;sensor_type;location;lat;lon;timestamp;P1;durP1;ratioP1;P2;durP2;ratioP2
72924;SDS011;61070;50.794;7.054;2023-03-14T00:00:05;7.03;;;1.65;;
72924;SDS011;61070;50.794;7.054;2023-03-14T00:02:38;10.55;;;1.27;;
72924;SDS011;61070;50.794;7.054;2023-03-14T00:05:04;10.30;;;1.30;;
72924;SDS011;61070;50.794;7.054;2023-03-14T00:07:32;12.02;;;2.10;;
72924;SDS011;61070;50.794;7.054;2023-03-14T00:10:00;9.05;;;1.63;;
72924;SDS011;61070;50.794;7.054;2023-03-14T00:12:27;9.98;;;1.48;;
72924;SDS011;61070;50.794;7.054;2023-03-14T00:14:53;9.05;;;1.30;;
72924;SDS011;61070;50.794;7.054;2023-03-14T00:17:18;4.63;;;1.13;;
72924;SDS011;61070;50.794;7.054;2023-03-14T00:19:44;6.38;;;1.58;;
72924;SDS011;61070;50.794;7.054;2023-03-14T00:22:09;4.72;;;1.42;;
72924;SDS011;61070;50.794;7.054;2023-03-14T00:24:34;7.65;;;1.50;;
72924;SDS011;61070;50.794;7.054;2023-03-14T00:27:00;7.93;;;1.38;;
72924;SDS011;61070;50.794;7.054;2023-03-14T00:29:25;9.48;;;1.67;;
72924;SDS011;61070;50.794;7.054;2023-03-14T00:31:50;11.57;;;1.90;;
72924;SDS011;61070;50.794;7.054;2023-03-14T00:34:16;12.95;;;1.65;;
72924;SDS011;61070;50.794;7.054;2023-03-14T00:36:41;5.60;;;1.42;;
72924;SDS011;61070;50.794;7.054;2023-03-14T00:39:06;8.90;;;1.42;;
72924;SDS011;61070;50.794;7.054;2023-03-14T00:41:31;6.30;;;1.40;;
72924;SDS011;61070;50.794;7.054;2023-03-14T00:43:57;6.03;;;1.80;;
72924;SDS011;61070;50.794;7.054;2023-03-14T00:46:22;7.47;;;1.77;;
72924;SDS011;61070;50.794;7.054;2023-03-14T00:48:47;7.57;;;1.60;;
72924;SDS011;61070;50.794;7.054;2023-03-14T00:51:13;7.78;;;1.30;;
72924;SDS011;61070;50.794;7.054;2023-03-14T00:53:40;9.02;;;2.20;;
72924;SDS011;61070;50.794;7.054;2023-03-14T00:56:06;6.05;;;1.42;;
72924;SDS011;61070;50.794;7.054;2023-03-14T00:58:34;8.32;;;1.98;;
72924;SDS011;61070;50.794;7.054;2023-03-14T01:01:04;7.10;;;1.40;;
72924;SDS011;61070;50.794;7.054;2023-03-14T01:03:34;5.38;;;1.20;;
72924;SDS011;61070;50.794;7.054;2023-03-14T01:06:09;6.68;;;1.20;;
72924;SDS011;61070;50.794;7.054;2023-03-14T01:08:36;6.13;;;1.50;;
72924;SDS011;61070;50.794;7.054;2023-03-14T01:11:08;4.30;;;1.20;;
72924;SDS011;61070;50.794;7.054;2023-03-14T01:13:35;6.90;;;1.40;;
72924;SDS011;61070;50.794;7.054;2023-03-14T01:16:02;8.75;;;1.15;;
72924;SDS011;61070;50.794;7.054;2023-03-14T01:18:30;5.95;;;1.52;;
72924;SDS011;61070;50.794;7.054;2023-03-14T01:20:56;8.05;;;1.40;;
72924;SDS011;61070;50.794;7.054;2023-03-14T01:23:21;6.53;;;1.30;;
72924;SDS011;61070;50.794;7.054;2023-03-14T01:25:47;8.30;;;1.40;;
72924;SDS011;61070;50.794;7.054;2023-03-14T01:28:12;10.65;;;1.58;;
72924;SDS011;61070;50.794;7.054;2023-03-14T01:30:37;10.10;;;1.67;;
72924;SDS011;61070;50.794;7.054;2023-03-14T01:33:02;10.73;;;1.60;;
72924;SDS011;61070;50.794;7.054;2023-03-14T01:35:28;6.00;;;1.20;;
72924;SDS011;61070;50.794;7.054;2023-03-14T01:37:53;10.38;;;1.50;;
72924;SDS011;61070;50.794;7.054;2023-03-14T01:40:18;7.85;;;1.55;;
72924;SDS011;61070;50.794;7.054;2023-03-14T01:42:45;9.20;;;1.85;;
72924;SDS011;61070;50.794;7.054;2023-03-14T01:49:20;5.72;;;1.15;;
72924;SDS011;61070;50.794;7.054;2023-03-14T01:54:14;5.53;;;1.52;;
72924;SDS011;61070;50.794;7.054;2023-03-14T01:56:41;9.82;;;1.50;;
72924;SDS011;61070;50.794;7.054;2023-03-14T01:59:11;9.88;;;1.63;;
72924;SDS011;61070;50.794;7.054;2023-03-14T02:01:37;13.85;;;2.53;;
72924;SDS011;61070;50.794;7.054;2023-03-14T02:04:06;6.15;;;0.95;;
72924;SDS011;61070;50.794;7.054;2023-03-14T02:06:40;8.25;;;1.27;;
72924;SDS011;61070;50.794;7.054;2023-03-14T02:09:32;5.20;;;0.90;;
72924;SDS011;61070;50.794;7.054;2023-03-14T02:11:58;4.88;;;1.10;;
72924;SDS011;61070;50.794;7.054;2023-03-14T02:14:29;4.55;;;0.70;;
72924;SDS011;61070;50.794;7.054;2023-03-14T02:16:57;3.88;;;0.47;;
72924;SDS011;61070;50.794;7.054;2023-03-14T02:19:26;1.83;;;0.68;;
72924;SDS011;61070;50.794;7.054;2023-03-14T02:22:09;5.18;;;0.90;;
72924;SDS011;61070;50.794;7.054;2023-03-14T02:24:46;6.28;;;0.85;;
72924;SDS011;61070;50.794;7.054;2023-03-14T02:27:16;3.65;;;0.77;;
72924;SDS011;61070;50.794;7.054;2023-03-14T02:29:53;4.35;;;1.00;;
72924;SDS011;61070;50.794;7.054;2023-03-14T02:32:19;3.22;;;1.02;;
72924;SDS011;61070;50.794;7.054;2023-03-14T02:34:48;2.47;;;0.60;;
72924;SDS011;61070;50.794;7.054;2023-03-14T02:37:16;5.18;;;1.15;;
72924;SDS011;61070;50.794;7.054;2023-03-14T02:39:46;4.30;;;1.00;;
72924;SDS011;61070;50.794;7.054;2023-03-14T02:42:14;9.40;;;1.60;;
72924;SDS011;61070;50.794;7.054;2023-03-14T02:45:41;6.50;;;1.10;;
72924;SDS011;61070;50.794;7.054;2023-03-14T02:47:34;8.15;;;1.63;;
72924;SDS011;61070;50.794;7.054;2023-03-14T02:50:08;10.63;;;1.80;;
72924;SDS011;61070;50.794;7.054;2023-03-14T02:52:35;8.15;;;1.42;;
72924;SDS011;61070;50.794;7.054;2023-03-14T02:55:00;8.00;;;1.50;;
72924;SDS011;61070;50.794;7.054;2023-03-14T02:57:25;14.05;;;1.80;;
72924;SDS011;61070;50.794;7.054;2023-03-14T02:59:51;5.82;;;1.75;;
72924;SDS011;61070;50.794;7.054;2023-03-14T03:02:17;9.38;;;1.70;;
72924;SDS011;61070;50.794;7.054;2023-03-14T03:04:43;7.35;;;1.27;;
72924;SDS011;61070;50.794;7.054;2023-03-14T03:07:08;8.93;;;1.70;;
72924;SDS011;61070;50.794;7.054;2023-03-14T03:09:33;3.83;;;1.40;;
72924;SDS011;61070;50.794;7.054;2023-03-14T03:11:59;11.13;;;1.77;;
72924;SDS011;61070;50.794;7.054;2023-03-14T03:14:24;7.35;;;1.80;;
72924;SDS011;61070;50.794;7.054;2023-03-14T03:16:50;6.18;;;1.35;;
72924;SDS011;61070;50.794;7.054;2023-03-14T03:19:15;12.25;;;1.90;;
72924;SDS011;61070;50.794;7.054;2023-03-14T03:21:42;11.00;;;1.88;;
72924;SDS011;61070;50.794;7.054;2023-03-14T03:24:08;10.00;;;1.52;;
72924;SDS011;61070;50.794;7.054;2023-03-14T03:26:34;10.57;;;2.03;;
72924;SDS011;61070;50.794;7.054;2023-03-14T03:28:59;12.75;;;1.98;;
72924;SDS011;61070;50.794;7.054;2023-03-14T03:31:25;7.82;;;1.73;;
72924;SDS011;61070;50.794;7.054;2023-03-14T03:33:50;13.43;;;2.08;;
72924;SDS011;61070;50.794;7.054;2023-03-14T03:36:17;11.13;;;1.90;;
72924;SDS011;61070;50.794;7.054;2023-03-14T03:38:45;13.85;;;1.63;;
72924;SDS011;61070;50.794;7.054;2023-03-14T03:41:11;9.35;;;1.60;;
72924;SDS011;61070;50.794;7.054;2023-03-14T03:43:36;10.82;;;1.80;;
72924;SDS011;61070;50.794;7.054;2023-03-14T03:46:02;11.18;;;1.80;;
72924;SDS011;61070;50.794;7.054;2023-03-14T03:48:29;9.32;;;2.00;;
72924;SDS011;61070;50.794;7.054;2023-03-14T03:50:55;10.07;;;1.55;;
72924;SDS011;61070;50.794;7.054;2023-03-14T03:53:20;7.75;;;1.33;;
72924;SDS011;61070;50.794;7.054;2023-03-14T03:55:45;13.20;;;1.75;;
72924;SDS011;61070;50.794;7.054;2023-03-14T03:58:11;6.70;;;1.55;;
72924;SDS011;61070;50.794;7.054;2023-03-14T04:00:36;8.25;;;1.70;;
72924;SDS011;61070;50.794;7.054;2023-03-14T04:03:01;8.77;;;1.30;;
72924;SDS011;61070;50.794;7.054;2023-03-14T04:05:27;11.73;;;2.30;;
72924;SDS011;61070;50.794;7.054;2023-03-14T04:07:52;6.13;;;1.50;;
72924;SDS011;61070;50.794;7.054;2023-03-14T04:10:17;9.25;;;1.77;;
72924;SDS011;61070;50.794;7.054;2023-03-14T04:12:43;6.45;;;1.42;;
72924;SDS011;61070;50.794;7.054;2023-03-14T04:15:08;5.80;;;1.20;;
72924;SDS011;61070;50.794;7.054;2023-03-14T04:17:34;7.75;;;1.58;;
72924;SDS011;61070;50.794;7.054;2023-03-14T04:19:59;7.60;;;1.45;;
72924;SDS011;61070;50.794;7.054;2023-03-14T04:22:24;9.38;;;1.77;;
72924;SDS011;61070;50.794;7.054;2023-03-14T04:24:50;2.95;;;1.55;;
72924;SDS011;61070;50.794;7.054;2023-03-14T04:27:15;10.23;;;1.30;;
72924;SDS011;61070;50.794;7.054;2023-03-14T04:29:41;4.40;;;0.80;;
72924;SDS011;61070;50.794;7.054;2023-03-14T04:32:07;2.28;;;0.70;;
72924;SDS011;61070;50.794;7.054;2023-03-14T04:34:32;2.83;;;1.17;;
72924;SDS011;61070;50.794;7.054;2023-03-14T04:36:57;7.50;;;1.20;;
72924;SDS011;61070;50.794;7.054;2023-03-14T04:39:23;5.97;;;1.50;;
72924;SDS011;61070;50.794;7.054;2023-03-14T04:41:48;6.00;;;1.20;;
72924;SDS011;61070;50.794;7.054;2023-03-14T04:44:13;6.30;;;1.00;;
72924;SDS011;61070;50.794;7.054;2023-03-14T04:46:39;9.38;;;1.40;;
72924;SDS011;61070;50.794;7.054;2023-03-14T04:49:04;4.25;;;0.90;;
72924;SDS011;61070;50.794;7.054;2023-03-14T04:51:29;5.05;;;1.10;;
72924;SDS011;61070;50.794;7.054;2023-03-14T04:53:55;5.15;;;0.80;;
72924;SDS011;61070;50.794;7.054;2023-03-14T04:56:20;4.22;;;1.05;;
72924;SDS011;61070;50.794;7.054;2023-03-14T04:58:46;7.60;;;1.05;;
72924;SDS011;61070;50.794;7.054;2023-03-14T05:01:11;3.65;;;1.10;;
72924;SDS011;61070;50.794;7.054;2023-03-14T05:03:36;1.63;;;0.75;;
72924;SDS011;61070;50.794;7.054;2023-03-14T05:06:03;3.80;;;0.57;;
72924;SDS011;61070;50.794;7.054;2023-03-14T05:08:29;4.55;;;0.90;;
72924;SDS011;61070;50.794;7.054;2023-03-14T05:10:55;1.75;;;0.50;;
72924;SDS011;61070;50.794;7.054;2023-03-14T05:13:21;3.47;;;1.00;;
72924;SDS011;61070;50.794;7.054;2023-03-14T05:15:47;1.75;;;0.60;;
72924;SDS011;61070;50.794;7.054;2023-03-14T05:18:13;1.77;;;0.70;;
72924;SDS011;61070;50.794;7.054;2023-03-14T05:20:38;3.20;;;0.55;;
72924;SDS011;61070;50.794;7.054;2023-03-14T05:23:03;1.38;;;0.40;;
72924;SDS011;61070;50.794;7.054;2023-03-14T05:25:29;1.40;;;0.45;;
72924;SDS011;61070;50.794;7.054;2023-03-14T05:27:54;1.38;;;0.47;;
72924;SDS011;61070;50.794;7.054;2023-03-14T05:30:20;1.70;;;0.57;;
72924;SDS011;61070;50.794;7.054;2023-03-14T05:32:46;1.95;;;0.40;;
72924;SDS011;61070;50.794;7.054;2023-03-14T05:35:12;2.13;;;0.45;;
72924;SDS011;61070;50.794;7.054;2023-03-14T05:37:37;2.25;;;0.47;;
72924;SDS011;61070;50.794;7.054;2023-03-14T05:40:02;1.42;;;0.30;;
72924;SDS011;61070;50.794;7.054;2023-03-14T05:42:31;1.10;;;0.20;;
72924;SDS011;61070;50.794;7.054;2023-03-14T05:44:56;0.25;;;0.17;;
72924;SDS011;61070;50.794;7.054;2023-03-14T05:47:22;3.08;;;0.40;;
72924;SDS011;61070;50.794;7.054;2023-03-14T05:49:47;0.75;;;0.32;;
72924;SDS011;61070;50.794;7.054;2023-03-14T05:52:13;0.55;;;0.40;;
72924;SDS011;61070;50.794;7.054;2023-03-14T05:54:39;0.30;;;0.30;;
72924;SDS011;61070;50.794;7.054;2023-03-14T05:57:04;0.95;;;0.50;;
72924;SDS011;61070;50.794;7.054;2023-03-14T05:59:29;1.02;;;0.40;;
72924;SDS011;61070;50.794;7.054;2023-03-14T06:01:55;4.93;;;0.30;;
72924;SDS011;61070;50.794;7.054;2023-03-14T06:04:20;1.25;;;0.45;;
72924;SDS011;61070;50.794;7.054;2023-03-14T06:06:45;0.70;;;0.43;;
72924;SDS011;61070;50.794;7.054;2023-03-14T06:09:11;0.75;;;0.40;;
72924;SDS011;61070;50.794;7.054;2023-03-14T06:11:36;1.58;;;0.57;;
72924;SDS011;61070;50.794;7.054;2023-03-14T06:14:01;0.80;;;0.30;;
72924;SDS011;61070;50.794;7.054;2023-03-14T06:16:26;1.25;;;0.40;;
72924;SDS011;61070;50.794;7.054;2023-03-14T06:18:52;0.20;;;0.20;;
72924;SDS011;61070;50.794;7.054;2023-03-14T06:21:17;0.60;;;0.28;;
72924;SDS011;61070;50.794;7.054;2023-03-14T06:23:44;0.80;;;0.50;;
72924;SDS011;61070;50.794;7.054;2023-03-14T06:26:09;3.50;;;0.57;;
72924;SDS011;61070;50.794;7.054;2023-03-14T06:28:36;0.43;;;0.25;;
72924;SDS011;61070;50.794;7.054;2023-03-14T06:31:02;4.32;;;0.35;;
72924;SDS011;61070;50.794;7.054;2023-03-14T06:33:28;2.30;;;0.35;;
72924;SDS011;61070;50.794;7.054;2023-03-14T06:35:53;0.28;;;0.10;;
72924;SDS011;61070;50.794;7.054;2023-03-14T06:38:18;0.63;;;0.30;;
72924;SDS011;61070;50.794;7.054;2023-03-14T06:40:44;1.90;;;0.40;;
72924;SDS011;61070;50.794;7.054;2023-03-14T06:43:09;0.68;;;0.20;;
72924;SDS011;61070;50.794;7.054;2023-03-14T06:45:34;0.32;;;0.20;;
72924;SDS011;61070;50.794;7.054;2023-03-14T06:48:00;0.40;;;0.38;;
72924;SDS011;61070;50.794;7.054;2023-03-14T06:50:25;0.75;;;0.40;;
72924;SDS011;61070;50.794;7.054;2023-03-14T06:52:50;2.55;;;0.20;;
72924;SDS011;61070;50.794;7.054;2023-03-14T06:55:16;0.30;;;0.30;;
72924;SDS011;61070;50.794;7.054;2023-03-14T06:57:41;1.55;;;0.50;;
72924;SDS011;61070;50.794;7.054;2023-03-14T07:00:08;2.00;;;0.22;;
72924;SDS011;61070;50.794;7.054;2023-03-14T07:02:33;0.22;;;0.20;;
72924;SDS011;61070;50.794;7.054;2023-03-14T07:04:59;0.73;;;0.20;;
72924;SDS011;61070;50.794;7.054;2023-03-14T07:07:25;0.57;;;0.20;;
72924;SDS011;61070;50.794;7.054;2023-03-14T07:09:51;0.60;;;0.30;;
72924;SDS011;61070;50.794;7.054;2023-03-14T07:12:16;0.30;;;0.30;;
72924;SDS011;61070;50.794;7.054;2023-03-14T07:14:42;0.10;;;0.10;;
72924;SDS011;61070;50.794;7.054;2023-03-14T07:17:07;0.93;;;0.38;;
72924;SDS011;61070;50.794;7.054;2023-03-14T07:19:32;1.15;;;0.40;;
72924;SDS011;61070;50.794;7.054;2023-03-14T07:21:57;1.55;;;0.45;;
72924;SDS011;61070;50.794;7.054;2023-03-14T07:24:23;1.85;;;0.30;;
72924;SDS011;61070;50.794;7.054;2023-03-14T07:26:48;0.10;;;0.10;;
72924;SDS011;61070;50.794;7.054;2023-03-14T07:29:13;0.35;;;0.30;;
72924;SDS011;61070;50.794;7.054;2023-03-14T07:31:39;0.80;;;0.10;;
72924;SDS011;61070;50.794;7.054;2023-03-14T07:34:04;0.45;;;0.25;;
72924;SDS011;61070;50.794;7.054;2023-03-14T07:36:29;0.20;;;0.10;;
72924;SDS011;61070;50.794;7.054;2023-03-14T07:38:54;0.20;;;0.20;;
72924;SDS011;61070;50.794;7.054;2023-03-14T07:41:20;0.40;;;0.20;;
72924;SDS011;61070;50.794;7.054;2023-03-14T07:43:47;0.52;;;0.30;;
72924;SDS011;61070;50.794;7.054;2023-03-14T07:46:13;0.30;;;0.20;;
72924;SDS011;61070;50.794;7.054;2023-03-14T07:48:39;0.57;;;0.20;;
72924;SDS011;61070;50.794;7.054;2023-03-14T07:51:05;0.43;;;0.40;;
72924;SDS011;61070;50.794;7.054;2023-03-14T07:53:30;0.35;;;0.30;;
72924;SDS011;61070;50.794;7.054;2023-03-14T07:55:56;0.20;;;0.20;;
72924;SDS011;61070;50.794;7.054;2023-03-14T07:58:21;1.08;;;0.20;;
72924;SDS011;61070;50.794;7.054;2023-03-14T08:00:47;0.32;;;0.10;;
72924;SDS011;61070;50.794;7.054;2023-03-14T08:03:13;0.52;;;0.35;;
72924;SDS011;61070;50.794;7.054;2023-03-14T08:05:38;0.38;;;0.20;;
72924;SDS011;61070;50.794;7.054;2023-03-14T08:08:04;0.20;;;0.20;;
72924;SDS011;61070;50.794;7.054;2023-03-14T08:10:30;0.52;;;0.10;;
72924;SDS011;61070;50.794;7.054;2023-03-14T08:12:56;0.10;;;0.10;;
72924;SDS011;61070;50.794;7.054;2023-03-14T08:15:24;0.43;;;0.20;;
72924;SDS011;61070;50.794;7.054;2023-03-14T08:17:49;5.07;;;0.30;;
72924;SDS011;61070;50.794;7.054;2023-03-14T08:20:23;0.20;;;0.20;;
72924;SDS011;61070;50.794;7.054;2023-03-14T08:22:50;0.15;;;0.10;;
72924;SDS011;61070;50.794;7.054;2023-03-14T08:25:15;0.10;;;0.10;;
72924;SDS011;61070;50.794;7.054;2023-03-14T08:27:41;0.32;;;0.20;;
72924;SDS011;61070;50.794;7.054;2023-03-14T08:30:07;0.75;;;0.20;;
72924;SDS011;61070;50.794;7.054;2023-03-14T08:32:35;0.35;;;0.20;;
72924;SDS011;61070;50.794;7.054;2023-03-14T08:35:01;0.13;;;0.10;;
72924;SDS011;61070;50.794;7.054;2023-03-14T08:37:26;0.20;;;0.10;;
72924;SDS011;61070;50.794;7.054;2023-03-14T08:39:52;0.10;;;0.10;;
72924;SDS011;61070;50.794;7.054;2023-03-14T08:42:18;0.20;;;0.20;;
72924;SDS011;61070;50.794;7.054;2023-03-14T08:44:43;1.10;;;0.73;;
72924;SDS011;61070;50.794;7.054;2023-03-14T08:47:09;0.10;;;0.10;;
72924;SDS011;61070;50.794;7.054;2023-03-14T08:49:34;0.22;;;0.20;;
72924;SDS011;61070;50.794;7.054;2023-03-14T08:52:01;0.10;;;0.10;;
72924;SDS011;61070;50.794;7.054;2023-03-14T08:54:28;0.80;;;0.32;;
72924;SDS011;61070;50.794;7.054;2023-03-14T08:56:54;0.60;;;0.40;;
72924;SDS011;61070;50.794;7.054;2023-03-14T08:59:19;0.65;;;0.40;;
72924;SDS011;61070;50.794;7.054;2023-03-14T09:01:45;1.42;;;0.40;;
72924;SDS011;61070;50.794;7.054;2023-03-14T09:04:10;0.90;;;0.70;;
72924;SDS011;61070;50.794;7.054;2023-03-14T09:06:35;1.77;;;0.80;;
72924;SDS011;61070;50.794;7.054;2023-03-14T09:09:01;0.30;;;0.30;;
72924;SDS011;61070;50.794;7.054;2023-03-14T09:11:26;1.98;;;0.80;;
72924;SDS011;61070;50.794;7.054;2023-03-14T09:13:52;1.15;;;0.68;;
72924;SDS011;61070;50.794;7.054;2023-03-14T09:16:17;2.20;;;0.40;;
72924;SDS011;61070;50.794;7.054;2023-03-14T09:18:42;0.52;;;0.30;;
72924;SDS011;61070;50.794;7.054;2023-03-14T09:21:08;1.25;;;0.65;;
72924;SDS011;61070;50.794;7.054;2023-03-14T09:23:33;0.38;;;0.20;;
72924;SDS011;61070;50.794;7.054;2023-03-14T09:25:58;0.38;;;0.20;;
72924;SDS011;61070;50.794;7.054;2023-03-14T09:28:25;0.20;;;0.20;;
72924;SDS011;61070;50.794;7.054;2023-03-14T09:30:50;0.85;;;0.43;;
72924;SDS011;61070;50.794;7.054;2023-03-14T09:33:16;0.22;;;0.22;;
72924;SDS011;61070;50.794;7.054;2023-03-14T09:35:42;0.68;;;0.28;;
72924;SDS011;61070;50.794;7.054;2023-03-14T09:38:07;0.55;;;0.30;;
72924;SDS011;61070;50.794;7.054;2023-03-14T09:40:36;1.00;;;0.25;;
72924;SDS011;61070;50.794;7.054;2023-03-14T09:43:02;0.97;;;0.30;;
72924;SDS011;61070;50.794;7.054;2023-03-14T09:45:32;0.40;;;0.32;;
72924;SDS011;61070;50.794;7.054;2023-03-14T09:47:58;0.30;;;0.20;;
72924;SDS011;61070;50.794;7.054;2023-03-14T09:50:27;0.50;;;0.30;;
72924;SDS011;61070;50.794;7.054;2023-03-14T09:53:00;0.82;;;0.30;;
72924;SDS011;61070;50.794;7.054;2023-03-14T09:55:29;1.20;;;0.32;;
72924;SDS011;61070;50.794;7.054;2023-03-14T09:57:56;1.80;;;0.30;;
72924;SDS011;61070;50.794;7.054;2023-03-14T10:00:28;6.32;;;0.65;;
72924;SDS011;61070;50.794;7.054;2023-03-14T10:02:57;0.85;;;0.40;;
72924;SDS011;61070;50.794;7.054;2023-03-14T10:05:32;0.50;;;0.50;;
72924;SDS011;61070;50.794;7.054;2023-03-14T10:07:57;0.35;;;0.25;;
72924;SDS011;61070;50.794;7.054;2023-03-14T10:10:24;1.00;;;0.50;;
72924;SDS011;61070;50.794;7.054;2023-03-14T10:13:33;8.60;;;0.73;;
72924;SDS011;61070;50.794;7.054;2023-03-14T10:15:51;3.00;;;0.40;;
72924;SDS011;61070;50.794;7.054;2023-03-14T10:18:23;1.10;;;0.60;;
72924;SDS011;61070;50.794;7.054;2023-03-14T10:20:49;2.13;;;0.55;;
72924;SDS011;61070;50.794;7.054;2023-03-14T10:23:28;0.95;;;0.50;;
72924;SDS011;61070;50.794;7.054;2023-03-14T10:26:18;0.70;;;0.60;;
72924;SDS011;61070;50.794;7.054;2023-03-14T10:28:52;3.70;;;0.85;;
72924;SDS011;61070;50.794;7.054;2023-03-14T10:31:25;3.67;;;0.95;;
72924;SDS011;61070;50.794;7.054;2023-03-14T10:34:01;3.35;;;1.10;;
72924;SDS011;61070;50.794;7.054;2023-03-14T10:36:29;5.85;;;1.50;;
72924;SDS011;61070;50.794;7.054;2023-03-14T10:39:44;1.85;;;1.35;;
72924;SDS011;61070;50.794;7.054;2023-03-14T10:41:52;2.10;;;1.27;;
72924;SDS011;61070;50.794;7.054;2023-03-14T10:44:20;3.95;;;1.35;;
72924;SDS011;61070;50.794;7.054;2023-03-14T10:47:00;2.53;;;1.25;;
72924;SDS011;61070;50.794;7.054;2023-03-14T10:49:35;1.30;;;0.75;;
72924;SDS011;61070;50.794;7.054;2023-03-14T10:52:15;2.08;;;1.00;;
72924;SDS011;61070;50.794;7.054;2023-03-14T10:54:48;1.05;;;0.60;;
72924;SDS011;61070;50.794;7.054;2023-03-14T10:57:19;1.35;;;0.80;;
72924;SDS011;61070;50.794;7.054;2023-03-14T10:59:45;3.45;;;0.90;;
72924;SDS011;61070;50.794;7.054;2023-03-14T11:05:20;2.78;;;1.10;;
72924;SDS011;61070;50.794;7.054;2023-03-14T11:08:06;1.33;;;0.70;;
72924;SDS011;61070;50.794;7.054;2023-03-14T11:10:45;3.30;;;0.82;;
72924;SDS011;61070;50.794;7.054;2023-03-14T11:13:21;8.02;;;0.68;;
72924;SDS011;61070;50.794;7.054;2023-03-14T11:15:57;1.70;;;0.68;;
72924;SDS011;61070;50.794;7.054;2023-03-14T11:18:46;1.17;;;0.50;;
72924;SDS011;61070;50.794;7.054;2023-03-14T11:21:18;3.00;;;0.60;;
72924;SDS011;61070;50.794;7.054;2023-03-14T11:29:39;3.28;;;0.80;;
72924;SDS011;61070;50.794;7.054;2023-03-14T11:32:13;2.83;;;0.80;;
72924;SDS011;61070;50.794;7.054;2023-03-14T11:34:52;1.52;;;0.70;;
72924;SDS011;61070;50.794;7.054;2023-03-14T11:37:34;1.25;;;0.60;;
72924;SDS011;61070;50.794;7.054;2023-03-14T11:42:59;1.85;;;0.80;;
72924;SDS011;61070;50.794;7.054;2023-03-14T11:45:37;2.05;;;0.88;;
72924;SDS011;61070;50.794;7.054;2023-03-14T11:48:22;1.58;;;0.80;;
72924;SDS011;61070;50.794;7.054;2023-03-14T11:50:55;3.83;;;1.50;;
72924;SDS011;61070;50.794;7.054;2023-03-14T11:56:06;2.10;;;1.23;;
72924;SDS011;61070;50.794;7.054;2023-03-14T11:58:39;3.25;;;1.58;;
72924;SDS011;61070;50.794;7.054;2023-03-14T12:01:12;1.30;;;1.00;;
72924;SDS011;61070;50.794;7.054;2023-03-14T12:03:43;1.10;;;1.00;;
72924;SDS011;61070;50.794;7.054;2023-03-14T12:06:24;2.95;;;1.00;;
72924;SDS011;61070;50.794;7.054;2023-03-14T12:08:56;0.93;;;0.40;;
72924;SDS011;61070;50.794;7.054;2023-03-14T12:11:28;1.27;;;0.45;;
72924;SDS011;61070;50.794;7.054;2023-03-14T12:14:19;1.48;;;0.60;;
72924;SDS011;61070;50.794;7.054;2023-03-14T12:16:48;1.52;;;0.63;;
72924;SDS011;61070;50.794;7.054;2023-03-14T12:24:45;1.17;;;0.93;;
72924;SDS011;61070;50.794;7.054;2023-03-14T12:27:37;1.75;;;1.05;;
72924;SDS011;61070;50.794;7.054;2023-03-14T12:30:24;3.15;;;1.40;;
72924;SDS011;61070;50.794;7.054;2023-03-14T12:33:10;2.10;;;1.52;;
72924;SDS011;61070;50.794;7.054;2023-03-14T12:35:42;4.15;;;2.35;;
72924;SDS011;61070;50.794;7.054;2023-03-14T12:40:42;3.78;;;2.25;;
72924;SDS011;61070;50.794;7.054;2023-03-14T12:43:24;3.90;;;2.38;;
72924;SDS011;61070;50.794;7.054;2023-03-14T12:51:36;4.88;;;1.50;;
72924;SDS011;61070;50.794;7.054;2023-03-14T12:56:52;3.92;;;1.95;;
72924;SDS011;61070;50.794;7.054;2023-03-14T13:04:33;2.85;;;0.85;;
72924;SDS011;61070;50.794;7.054;2023-03-14T13:07:01;2.97;;;0.90;;
72924;SDS011;61070;50.794;7.054;2023-03-14T13:12:03;2.25;;;0.80;;
72924;SDS011;61070;50.794;7.054;2023-03-14T13:14:35;9.35;;;1.40;;
72924;SDS011;61070;50.794;7.054;2023-03-14T13:17:02;4.30;;;1.33;;
72924;SDS011;61070;50.794;7.054;2023-03-14T13:19:27;4.07;;;1.10;;
72924;SDS011;61070;50.794;7.054;2023-03-14T13:22:05;3.50;;;1.13;;
72924;SDS011;61070;50.794;7.054;2023-03-14T13:24:40;2.05;;;1.05;;
72924;SDS011;61070;50.794;7.054;2023-03-14T13:27:08;7.03;;;1.77;;
72924;SDS011;61070;50.794;7.054;2023-03-14T13:29:45;5.95;;;2.03;;
72924;SDS011;61070;50.794;7.054;2023-03-14T13:32:18;7.53;;;2.47;;
72924;SDS011;61070;50.794;7.054;2023-03-14T13:34:46;1.83;;;0.82;;
72924;SDS011;61070;50.794;7.054;2023-03-14T13:37:20;2.83;;;1.00;;
72924;SDS011;61070;50.794;7.054;2023-03-14T13:39:51;4.10;;;0.90;;
72924;SDS011;61070;50.794;7.054;2023-03-14T13:42:18;3.72;;;1.08;;
72924;SDS011;61070;50.794;7.054;2023-03-14T13:44:44;8.18;;;1.10;;
72924;SDS011;61070;50.794;7.054;2023-03-14T13:47:14;2.17;;;1.30;;
72924;SDS011;61070;50.794;7.054;2023-03-14T13:49:41;4.07;;;1.10;;
72924;SDS011;61070;50.794;7.054;2023-03-14T13:54:56;4.45;;;1.33;;
72924;SDS011;61070;50.794;7.054;2023-03-14T13:57:23;5.40;;;1.55;;
72924;SDS011;61070;50.794;7.054;2023-03-14T14:00:02;2.92;;;1.30;;
72924;SDS011;61070;50.794;7.054;2023-03-14T14:02:35;3.03;;;1.13;;
72924;SDS011;61070;50.794;7.054;2023-03-14T14:05:02;5.97;;;0.90;;
72924;SDS011;61070;50.794;7.054;2023-03-14T14:07:28;3.47;;;1.27;;
72924;SDS011;61070;50.794;7.054;2023-03-14T14:09:54;5.03;;;1.40;;
72924;SDS011;61070;50.794;7.054;2023-03-14T14:12:22;5.18;;;1.42;;
72924;SDS011;61070;50.794;7.054;2023-03-14T14:14:54;4.72;;;1.48;;
72924;SDS011;61070;50.794;7.054;2023-03-14T14:17:26;9.30;;;1.58;;
72924;SDS011;61070;50.794;7.054;2023-03-14T14:19:58;4.28;;;1.45;;
72924;SDS011;61070;50.794;7.054;2023-03-14T14:22:25;15.18;;;2.80;;
72924;SDS011;61070;50.794;7.054;2023-03-14T14:24:51;8.10;;;1.88;;
72924;SDS011;61070;50.794;7.054;2023-03-14T14:27:17;8.88;;;2.58;;
72924;SDS011;61070;50.794;7.054;2023-03-14T14:29:56;10.45;;;2.15;;
72924;SDS011;61070;50.794;7.054;2023-03-14T14:32:24;6.00;;;1.60;;
72924;SDS011;61070;50.794;7.054;2023-03-14T14:34:59;18.38;;;2.95;;
72924;SDS011;61070;50.794;7.054;2023-03-14T14:37:29;21.42;;;3.83;;
72924;SDS011;61070;50.794;7.054;2023-03-14T14:39:58;10.88;;;2.42;;
72924;SDS011;61070;50.794;7.054;2023-03-14T14:42:29;17.02;;;2.78;;
72924;SDS011;61070;50.794;7.054;2023-03-14T14:47:23;14.48;;;2.50;;
72924;SDS011;61070;50.794;7.054;2023-03-14T14:49:50;14.38;;;3.47;;
72924;SDS011;61070;50.794;7.054;2023-03-14T14:52:21;18.20;;;2.78;;
72924;SDS011;61070;50.794;7.054;2023-03-14T14:54:59;27.80;;;4.07;;
72924;SDS011;61070;50.794;7.054;2023-03-14T14:57:31;16.23;;;2.42;;
72924;SDS011;61070;50.794;7.054;2023-03-14T15:00:02;16.77;;;2.90;;
72924;SDS011;61070;50.794;7.054;2023-03-14T15:02:41;25.52;;;2.85;;
72924;SDS011;61070;50.794;7.054;2023-03-14T15:05:18;17.30;;;2.95;;
72924;SDS011;61070;50.794;7.054;2023-03-14T15:07:45;20.25;;;3.05;;
72924;SDS011;61070;50.794;7.054;2023-03-14T15:10:12;17.13;;;4.15;;
72924;SDS011;61070;50.794;7.054;2023-03-14T15:15:07;19.43;;;4.17;;
72924;SDS011;61070;50.794;7.054;2023-03-14T15:17:33;17.20;;;3.22;;
72924;SDS011;61070;50.794;7.054;2023-03-14T15:20:00;23.90;;;4.40;;
72924;SDS011;61070;50.794;7.054;2023-03-14T15:22:26;20.55;;;3.30;;
72924;SDS011;61070;50.794;7.054;2023-03-14T15:24:51;16.63;;;3.33;;
72924;SDS011;61070;50.794;7.054;2023-03-14T15:27:17;21.92;;;3.40;;
72924;SDS011;61070;50.794;7.054;2023-03-14T15:29:43;13.23;;;3.13;;
72924;SDS011;61070;50.794;7.054;2023-03-14T15:32:10;14.55;;;3.35;;
72924;SDS011;61070;50.794;7.054;2023-03-14T15:34:36;22.02;;;3.10;;
72924;SDS011;61070;50.794;7.054;2023-03-14T15:37:02;10.40;;;2.42;;
72924;SDS011;61070;50.794;7.054;2023-03-14T15:39:32;12.93;;;2.70;;
72924;SDS011;61070;50.794;7.054;2023-03-14T15:41:58;13.70;;;2.58;;
72924;SDS011;61070;50.794;7.054;2023-03-14T15:44:24;11.77;;;2.70;;